sensor_id;sensor_type;location;lat;lon;timestamp;pressure;altitude;pressure_sealevel;temperature;humidity
61324;BME280;47203;48.428;11.974;2023-02-13T00:01:33;98740.03;;;9.07;44.53
61324;BME280;47203;48.428;11.974;2023-02-13T00:03:38;98735.56;;;9.08;44.61
61324;BME280;47203;48.428;11.974;2023-02-13T00:05:43;98732.16;;;9.07;44.62
61324;BME280;47203;48.428;11.974;2023-02-13T00:07:50;98731.34;;;9.07;44.48
61324;BME280;47203;48.428;11.974;2023-02-13T00:09:55;98728.72;;;9.07;44.67
61324;BME280;47203;48.428;11.974;2023-02-13T00:11:59;98728.09;;;9.05;44.36
61324;BME280;47203;48.428;11.974;2023-02-13T00:14:04;98724.69;;;9.04;44.46
61324;BME280;47203;48.428;11.974;2023-02-13T00:16:08;98723.69;;;9.05;44.42
61324;BME280;47203;48.428;11.974;2023-02-13T00:18:13;98720.03;;;9.06;44.32
61324;BME280;47203;48.428;11.974;2023-02-13T00:20:18;98714.75;;;9.06;44.62
61324;BME280;47203;48.428;11.974;2023-02-13T00:22:22;98717.59;;;9.05;44.66
61324;BME280;47203;48.428;11.974;2023-02-13T00:24:29;98716.00;;;9.04;44.47
61324;BME280;47203;48.428;11.974;2023-02-13T00:26:34;98715.81;;;9.05;44.58
61324;BME280;47203;48.428;11.974;2023-02-13T00:28:40;98713.97;;;9.06;44.45
61324;BME280;47203;48.428;11.974;2023-02-13T00:30:45;98714.75;;;9.06;44.50
61324;BME280;47203;48.428;11.974;2023-02-13T00:32:50;98712.34;;;9.05;44.24
61324;BME280;47203;48.428;11.974;2023-02-13T00:34:57;98718.63;;;9.04;44.53
61324;BME280;47203;48.428;11.974;2023-02-13T00:37:03;98708.50;;;9.01;44.43
61324;BME280;47203;48.428;11.974;2023-02-13T00:39:08;98712.38;;;8.98;44.43
61324;BME280;47203;48.428;11.974;2023-02-13T00:41:16;98709.13;;;8.96;44.52
61324;BME280;47203;48.428;11.974;2023-02-13T00:43:21;98709.13;;;8.96;44.53
61324;BME280;47203;48.428;11.974;2023-02-13T00:45:25;98712.59;;;8.97;44.47
61324;BME280;47203;48.428;11.974;2023-02-13T00:47:30;98706.50;;;8.96;44.47
61324;BME280;47203;48.428;11.974;2023-02-13T00:49:34;98716.00;;;8.97;44.58
61324;BME280;47203;48.428;11.974;2023-02-13T00:51:39;98708.34;;;8.96;44.51
61324;BME280;47203;48.428;11.974;2023-02-13T00:53:43;98704.09;;;8.95;44.55
61324;BME280;47203;48.428;11.974;2023-02-13T00:55:49;98702.50;;;8.94;44.45
61324;BME280;47203;48.428;11.974;2023-02-13T00:57:56;98705.13;;;8.94;44.36
61324;BME280;47203;48.428;11.974;2023-02-13T01:00:01;98707.31;;;8.90;44.42
61324;BME280;47203;48.428;11.974;2023-02-13T01:02:05;98706.13;;;8.86;44.41
61324;BME280;47203;48.428;11.974;2023-02-13T01:04:10;98705.53;;;8.84;44.88
61324;BME280;47203;48.428;11.974;2023-02-13T01:06:14;98711.19;;;8.81;44.64
61324;BME280;47203;48.428;11.974;2023-02-13T01:08:19;98707.34;;;8.77;44.88
61324;BME280;47203;48.428;11.974;2023-02-13T01:10:24;98709.34;;;8.74;44.71
61324;BME280;47203;48.428;11.974;2023-02-13T01:12:29;98707.13;;;8.71;44.73
61324;BME280;47203;48.428;11.974;2023-02-13T01:14:36;98711.59;;;8.71;44.87
61324;BME280;47203;48.428;11.974;2023-02-13T01:16:41;98709.75;;;8.71;44.96
61324;BME280;47203;48.428;11.974;2023-02-13T01:18:45;98701.28;;;8.69;44.88
61324;BME280;47203;48.428;11.974;2023-02-13T01:20:56;98709.16;;;8.69;45.07
61324;BME280;47203;48.428;11.974;2023-02-13T01:23:01;98711.78;;;8.69;44.99
61324;BME280;47203;48.428;11.974;2023-02-13T01:25:06;98709.16;;;8.69;44.85
61324;BME280;47203;48.428;11.974;2023-02-13T01:27:11;98703.31;;;8.67;44.99
61324;BME280;47203;48.428;11.974;2023-02-13T01:29:18;98705.31;;;8.65;44.98
61324;BME280;47203;48.428;11.974;2023-02-13T01:31:25;98715.44;;;8.62;44.92
61324;BME280;47203;48.428;11.974;2023-02-13T01:33:29;98709.75;;;8.58;45.12
61324;BME280;47203;48.428;11.974;2023-02-13T01:35:35;98709.38;;;8.54;44.99
61324;BME280;47203;48.428;11.974;2023-02-13T01:37:43;98714.41;;;8.49;45.15
61324;BME280;47203;48.428;11.974;2023-02-13T01:39:48;98709.56;;;8.46;45.01
61324;BME280;47203;48.428;11.974;2023-02-13T01:41:55;98713.34;;;8.44;45.18
61324;BME280;47203;48.428;11.974;2023-02-13T01:43:59;98711.13;;;8.41;45.04
61324;BME280;47203;48.428;11.974;2023-02-13T01:46:04;98709.72;;;8.38;45.25
61324;BME280;47203;48.428;11.974;2023-02-13T01:48:12;98713.56;;;8.35;45.15
61324;BME280;47203;48.428;11.974;2023-02-13T01:50:20;98711.34;;;8.32;45.33
61324;BME280;47203;48.428;11.974;2023-02-13T01:52:26;98702.06;;;8.30;45.31
61324;BME280;47203;48.428;11.974;2023-02-13T01:54:31;98706.47;;;8.29;45.20
61324;BME280;47203;48.428;11.974;2023-02-13T01:56:37;98700.44;;;8.29;45.14
61324;BME280;47203;48.428;11.974;2023-02-13T01:58:45;98702.84;;;8.30;45.43
61324;BME280;47203;48.428;11.974;2023-02-13T02:00:52;98704.47;;;8.31;45.49
61324;BME280;47203;48.428;11.974;2023-02-13T02:02:59;98709.72;;;8.31;45.30
61324;BME280;47203;48.428;11.974;2023-02-13T02:05:08;98705.47;;;8.30;45.14
61324;BME280;47203;48.428;11.974;2023-02-13T02:07:14;98704.69;;;8.30;45.36
61324;BME280;47203;48.428;11.974;2023-02-13T02:09:23;98703.84;;;8.29;45.17
61324;BME280;47203;48.428;11.974;2023-02-13T02:11:30;98703.06;;;8.29;45.37
61324;BME280;47203;48.428;11.974;2023-02-13T02:13:38;98702.47;;;8.27;45.30
61324;BME280;47203;48.428;11.974;2023-02-13T02:15:44;98698.41;;;8.24;45.34
61324;BME280;47203;48.428;11.974;2023-02-13T02:17:50;98699.81;;;8.20;45.28
61324;BME280;47203;48.428;11.974;2023-02-13T02:19:58;98702.44;;;8.20;45.08
61324;BME280;47203;48.428;11.974;2023-02-13T02:24:32;98701.03;;;8.24;45.25
61324;BME280;47203;48.428;11.974;2023-02-13T02:29:10;98702.22;;;8.21;45.41
61324;BME280;47203;48.428;11.974;2023-02-13T02:33:44;98700.81;;;8.19;45.30
61324;BME280;47203;48.428;11.974;2023-02-13T02:35:54;98698.81;;;8.21;45.48
61324;BME280;47203;48.428;11.974;2023-02-13T02:38:11;98696.59;;;8.25;45.09
61324;BME280;47203;48.428;11.974;2023-02-13T02:40:23;98693.56;;;8.28;45.17
61324;BME280;47203;48.428;11.974;2023-02-13T02:42:31;98702.06;;;8.30;45.06
61324;BME280;47203;48.428;11.974;2023-02-13T02:44:41;98697.00;;;8.28;45.18
61324;BME280;47203;48.428;11.974;2023-02-13T02:46:52;98699.22;;;8.25;45.24
61324;BME280;47203;48.428;11.974;2023-02-13T02:49:14;98695.19;;;8.22;44.95
61324;BME280;47203;48.428;11.974;2023-02-13T02:51:36;98700.22;;;8.17;45.03
61324;BME280;47203;48.428;11.974;2023-02-13T02:53:43;98691.75;;;8.15;45.29
61324;BME280;47203;48.428;11.974;2023-02-13T02:55:53;98690.13;;;8.14;45.34
61324;BME280;47203;48.428;11.974;2023-02-13T02:58:01;98692.94;;;8.12;45.44
61324;BME280;47203;48.428;11.974;2023-02-13T03:00:21;98692.53;;;8.09;45.46
61324;BME280;47203;48.428;11.974;2023-02-13T03:02:40;98695.34;;;8.07;45.31
61324;BME280;47203;48.428;11.974;2023-02-13T03:05:00;98701.63;;;8.06;45.56
61324;BME280;47203;48.428;11.974;2023-02-13T03:07:18;98697.97;;;8.07;45.20
61324;BME280;47203;48.428;11.974;2023-02-13T03:09:23;98694.34;;;8.08;45.28
61324;BME280;47203;48.428;11.974;2023-02-13T03:11:43;98694.75;;;8.05;45.18
61324;BME280;47203;48.428;11.974;2023-02-13T03:14:02;98696.75;;;8.03;45.27
61324;BME280;47203;48.428;11.974;2023-02-13T03:16:09;98694.13;;;8.03;45.32
61324;BME280;47203;48.428;11.974;2023-02-13T03:18:27;98691.69;;;8.01;45.40
61324;BME280;47203;48.428;11.974;2023-02-13T03:20:48;98688.88;;;8.03;45.25
61324;BME280;47203;48.428;11.974;2023-02-13T03:23:11;98692.72;;;8.00;45.19
61324;BME280;47203;48.428;11.974;2023-02-13T03:25:18;98703.41;;;7.99;45.38
61324;BME280;47203;48.428;11.974;2023-02-13T03:27:33;98688.47;;;7.99;45.30
61324;BME280;47203;48.428;11.974;2023-02-13T03:29:55;98697.56;;;8.03;45.41
61324;BME280;47203;48.428;11.974;2023-02-13T03:32:16;98695.34;;;8.07;45.24
61324;BME280;47203;48.428;11.974;2023-02-13T03:34:23;98700.19;;;8.10;45.27
61324;BME280;47203;48.428;11.974;2023-02-13T03:36:52;98692.31;;;8.10;44.96
61324;BME280;47203;48.428;11.974;2023-02-13T03:39:15;98690.53;;;8.11;45.36
61324;BME280;47203;48.428;11.974;2023-02-13T03:41:20;98697.38;;;8.12;45.22
61324;BME280;47203;48.428;11.974;2023-02-13T03:43:28;98689.13;;;8.15;45.07
61324;BME280;47203;48.428;11.974;2023-02-13T03:45:35;98690.53;;;8.17;44.90
61324;BME280;47203;48.428;11.974;2023-02-13T03:47:54;98700.00;;;8.18;45.01
61324;BME280;47203;48.428;11.974;2023-02-13T03:49:59;98695.19;;;8.22;44.88
61324;BME280;47203;48.428;11.974;2023-02-13T03:52:12;98695.19;;;8.22;44.75
61324;BME280;47203;48.428;11.974;2023-02-13T03:54:19;98695.78;;;8.17;45.07
61324;BME280;47203;48.428;11.974;2023-02-13T03:56:38;98692.53;;;8.15;44.81
61324;BME280;47203;48.428;11.974;2023-02-13T03:58:56;98692.13;;;8.12;45.12
61324;BME280;47203;48.428;11.974;2023-02-13T04:01:18;98694.56;;;8.07;45.03
61324;BME280;47203;48.428;11.974;2023-02-13T04:03:26;98692.94;;;7.99;45.05
61324;BME280;47203;48.428;11.974;2023-02-13T04:05:35;98690.28;;;7.92;45.33
61324;BME280;47203;48.428;11.974;2023-02-13T04:07:45;98686.22;;;7.90;45.29
61324;BME280;47203;48.428;11.974;2023-02-13T04:09:49;98694.53;;;7.93;45.26
61324;BME280;47203;48.428;11.974;2023-02-13T04:11:55;98692.69;;;7.94;45.16
61324;BME280;47203;48.428;11.974;2023-02-13T04:14:03;98697.94;;;7.94;45.27
61324;BME280;47203;48.428;11.974;2023-02-13T04:16:11;98696.13;;;7.94;45.34
61324;BME280;47203;48.428;11.974;2023-02-13T04:18:19;98690.88;;;7.94;45.37
61324;BME280;47203;48.428;11.974;2023-02-13T04:20:25;98694.53;;;7.93;45.21
61324;BME280;47203;48.428;11.974;2023-02-13T04:22:30;98696.31;;;7.93;45.28
61324;BME280;47203;48.428;11.974;2023-02-13T04:24:37;98697.94;;;7.94;45.49
61324;BME280;47203;48.428;11.974;2023-02-13T04:26:42;98694.13;;;7.96;45.25
61324;BME280;47203;48.428;11.974;2023-02-13T04:28:47;98695.75;;;7.97;45.17
61324;BME280;47203;48.428;11.974;2023-02-13T04:30:52;98699.97;;;7.98;45.41
61324;BME280;47203;48.428;11.974;2023-02-13T04:32:57;98701.78;;;7.98;45.37
61324;BME280;47203;48.428;11.974;2023-02-13T04:35:01;98702.41;;;8.00;45.40
61324;BME280;47203;48.428;11.974;2023-02-13T04:37:06;98697.78;;;8.02;45.41
61324;BME280;47203;48.428;11.974;2023-02-13T04:39:11;98696.56;;;8.04;45.17
61324;BME280;47203;48.428;11.974;2023-02-13T04:41:18;98701.22;;;8.09;44.91
61324;BME280;47203;48.428;11.974;2023-02-13T04:43:22;98689.50;;;8.12;45.06
61324;BME280;47203;48.428;11.974;2023-02-13T04:45:27;98696.38;;;8.13;45.01
61324;BME280;47203;48.428;11.974;2023-02-13T04:47:32;98698.00;;;8.14;45.20
61324;BME280;47203;48.428;11.974;2023-02-13T04:49:36;98697.78;;;8.15;44.84
61324;BME280;47203;48.428;11.974;2023-02-13T04:51:40;98697.00;;;8.15;44.99
61324;BME280;47203;48.428;11.974;2023-02-13T04:53:45;98701.81;;;8.11;44.81
61324;BME280;47203;48.428;11.974;2023-02-13T04:55:50;98705.44;;;8.10;45.04
61324;BME280;47203;48.428;11.974;2023-02-13T04:57:57;98691.72;;;8.08;44.90
61324;BME280;47203;48.428;11.974;2023-02-13T05:00:02;98701.63;;;8.06;44.88
61324;BME280;47203;48.428;11.974;2023-02-13T05:02:07;98698.38;;;8.04;45.20
61324;BME280;47203;48.428;11.974;2023-02-13T05:04:12;98703.63;;;8.04;44.96
61324;BME280;47203;48.428;11.974;2023-02-13T05:06:18;98704.44;;;8.04;44.95
61324;BME280;47203;48.428;11.974;2023-02-13T05:08:22;98714.94;;;8.04;45.14
61324;BME280;47203;48.428;11.974;2023-02-13T05:10:27;98708.88;;;8.04;44.95
61324;BME280;47203;48.428;11.974;2023-02-13T05:12:31;98713.09;;;8.05;44.96
61324;BME280;47203;48.428;11.974;2023-02-13T05:14:39;98719.16;;;8.06;45.23
61324;BME280;47203;48.428;11.974;2023-02-13T05:16:43;98725.22;;;8.06;45.29
61324;BME280;47203;48.428;11.974;2023-02-13T05:18:48;98725.44;;;8.04;45.17
61324;BME280;47203;48.428;11.974;2023-02-13T05:20:55;98718.56;;;8.03;45.25
61324;BME280;47203;48.428;11.974;2023-02-13T05:23:12;98722.19;;;8.02;45.05
61324;BME280;47203;48.428;11.974;2023-02-13T05:25:26;98721.97;;;8.04;45.26
61324;BME280;47203;48.428;11.974;2023-02-13T05:27:31;98721.38;;;8.02;45.09
61324;BME280;47203;48.428;11.974;2023-02-13T05:29:35;98713.72;;;8.00;45.11
61324;BME280;47203;48.428;11.974;2023-02-13T05:31:40;98720.75;;;8.00;45.36
61324;BME280;47203;48.428;11.974;2023-02-13T05:33:44;98716.34;;;8.00;45.36
61324;BME280;47203;48.428;11.974;2023-02-13T05:35:49;98712.09;;;7.99;45.46
61324;BME280;47203;48.428;11.974;2023-02-13T05:37:53;98709.25;;;8.01;45.06
61324;BME280;47203;48.428;11.974;2023-02-13T05:39:58;98701.19;;;8.02;45.41
61324;BME280;47203;48.428;11.974;2023-02-13T05:42:02;98697.16;;;8.00;45.07
61324;BME280;47203;48.428;11.974;2023-02-13T05:44:07;98696.31;;;7.93;45.15
61324;BME280;47203;48.428;11.974;2023-02-13T05:46:12;98699.34;;;7.83;45.34
61324;BME280;47203;48.428;11.974;2023-02-13T05:48:19;98694.47;;;7.73;45.23
61324;BME280;47203;48.428;11.974;2023-02-13T05:50:24;98698.88;;;7.66;45.29
61324;BME280;47203;48.428;11.974;2023-02-13T05:52:29;98706.13;;;7.64;45.58
61324;BME280;47203;48.428;11.974;2023-02-13T05:54:34;98706.94;;;7.64;45.69
61324;BME280;47203;48.428;11.974;2023-02-13T05:56:38;98708.56;;;7.65;45.72
61324;BME280;47203;48.428;11.974;2023-02-13T05:58:43;98711.19;;;7.65;45.34
61324;BME280;47203;48.428;11.974;2023-02-13T06:00:48;98710.16;;;7.66;45.45
61324;BME280;47203;48.428;11.974;2023-02-13T06:02:52;98717.22;;;7.66;45.48
61324;BME280;47203;48.428;11.974;2023-02-13T06:05:00;98721.47;;;7.67;45.56
61324;BME280;47203;48.428;11.974;2023-02-13T06:07:04;98723.06;;;7.68;45.49
61324;BME280;47203;48.428;11.974;2023-02-13T06:09:09;98730.38;;;7.73;45.71
61324;BME280;47203;48.428;11.974;2023-02-13T06:11:14;98725.31;;;7.78;45.37
61324;BME280;47203;48.428;11.974;2023-02-13T06:13:18;98734.41;;;7.82;45.26
61324;BME280;47203;48.428;11.974;2023-02-13T06:15:23;98731.59;;;7.83;45.34
61324;BME280;47203;48.428;11.974;2023-02-13T06:17:27;98737.44;;;7.85;45.38
61324;BME280;47203;48.428;11.974;2023-02-13T06:19:32;98745.13;;;7.87;45.42
61324;BME280;47203;48.428;11.974;2023-02-13T06:21:39;98737.06;;;7.89;45.12
61324;BME280;47203;48.428;11.974;2023-02-13T06:23:43;98743.91;;;7.90;45.26
61324;BME280;47203;48.428;11.974;2023-02-13T06:25:48;98747.38;;;7.90;45.23
61324;BME280;47203;48.428;11.974;2023-02-13T06:27:53;98746.97;;;7.93;45.39
61324;BME280;47203;48.428;11.974;2023-02-13T06:29:57;98749.41;;;7.95;45.07
61324;BME280;47203;48.428;11.974;2023-02-13T06:32:01;98750.00;;;7.97;44.92
61324;BME280;47203;48.428;11.974;2023-02-13T06:34:06;98753.44;;;7.97;45.14
61324;BME280;47203;48.428;11.974;2023-02-13T06:36:11;98746.38;;;7.98;44.89
61324;BME280;47203;48.428;11.974;2023-02-13T06:38:18;98764.53;;;7.99;45.00
61324;BME280;47203;48.428;11.974;2023-02-13T06:40:23;98756.25;;;7.96;45.24
61324;BME280;47203;48.428;11.974;2023-02-13T06:42:27;98761.47;;;7.89;45.07
61324;BME280;47203;48.428;11.974;2023-02-13T06:44:32;98762.88;;;7.85;45.02
61324;BME280;47203;48.428;11.974;2023-02-13T06:46:36;98757.03;;;7.83;45.24
61324;BME280;47203;48.428;11.974;2023-02-13T06:48:41;98762.06;;;7.84;45.13
61324;BME280;47203;48.428;11.974;2023-02-13T06:50:45;98770.34;;;7.88;45.42
61324;BME280;47203;48.428;11.974;2023-02-13T06:52:52;98762.28;;;7.90;45.38
61324;BME280;47203;48.428;11.974;2023-02-13T06:54:59;98764.88;;;7.90;45.04
61324;BME280;47203;48.428;11.974;2023-02-13T06:57:04;98772.16;;;7.88;45.26
61324;BME280;47203;48.428;11.974;2023-02-13T06:59:09;98780.63;;;7.83;45.20
61324;BME280;47203;48.428;11.974;2023-02-13T07:01:14;98777.56;;;7.79;45.13
61324;BME280;47203;48.428;11.974;2023-02-13T07:03:19;98779.78;;;7.76;45.19
61324;BME280;47203;48.428;11.974;2023-02-13T07:05:23;98777.53;;;7.73;45.14
61324;BME280;47203;48.428;11.974;2023-02-13T07:07:31;98784.38;;;7.67;45.19
61324;BME280;47203;48.428;11.974;2023-02-13T07:09:35;98786.56;;;7.63;45.51
61324;BME280;47203;48.428;11.974;2023-02-13T07:11:44;98791.78;;;7.63;45.39
61324;BME280;47203;48.428;11.974;2023-02-13T07:13:48;98791.41;;;7.66;45.74
61324;BME280;47203;48.428;11.974;2023-02-13T07:15:53;98793.22;;;7.66;45.39
61324;BME280;47203;48.428;11.974;2023-02-13T07:18:01;98792.22;;;7.67;45.56
61324;BME280;47203;48.428;11.974;2023-02-13T07:20:07;98797.66;;;7.65;45.62
61324;BME280;47203;48.428;11.974;2023-02-13T07:22:11;98799.28;;;7.66;45.43
61324;BME280;47203;48.428;11.974;2023-02-13T07:24:16;98803.50;;;7.67;45.38
61324;BME280;47203;48.428;11.974;2023-02-13T07:26:20;98801.69;;;7.68;45.55
61324;BME280;47203;48.428;11.974;2023-02-13T07:28:29;98809.19;;;7.71;45.43
61324;BME280;47203;48.428;11.974;2023-02-13T07:30:34;98804.56;;;7.73;45.77
61324;BME280;47203;48.428;11.974;2023-02-13T07:32:38;98806.00;;;7.76;45.31
61324;BME280;47203;48.428;11.974;2023-02-13T07:34:43;98810.84;;;7.79;45.32
61324;BME280;47203;48.428;11.974;2023-02-13T07:37:01;98807.22;;;7.80;45.65
61324;BME280;47203;48.428;11.974;2023-02-13T07:39:06;98812.47;;;7.80;45.48
61324;BME280;47203;48.428;11.974;2023-02-13T07:41:10;98809.00;;;7.79;45.52
61324;BME280;47203;48.428;11.974;2023-02-13T07:43:15;98817.06;;;7.78;45.56
61324;BME280;47203;48.428;11.974;2023-02-13T07:45:22;98812.81;;;7.77;45.59
61324;BME280;47203;48.428;11.974;2023-02-13T07:47:27;98816.47;;;7.76;45.52
61324;BME280;47203;48.428;11.974;2023-02-13T07:49:31;98813.03;;;7.75;45.50
61324;BME280;47203;48.428;11.974;2023-02-13T07:51:37;98814.66;;;7.76;45.44
61324;BME280;47203;48.428;11.974;2023-02-13T07:53:42;98810.03;;;7.78;45.75
61324;BME280;47203;48.428;11.974;2023-02-13T07:55:46;98810.84;;;7.79;45.68
61324;BME280;47203;48.428;11.974;2023-02-13T07:57:51;98812.81;;;7.77;45.54
61324;BME280;47203;48.428;11.974;2023-02-13T07:59:55;98809.22;;;7.78;45.43
61324;BME280;47203;48.428;11.974;2023-02-13T08:02:14;98810.44;;;7.82;45.68
61324;BME280;47203;48.428;11.974;2023-02-13T08:04:19;98814.09;;;7.88;45.59
61324;BME280;47203;48.428;11.974;2023-02-13T08:06:26;98815.34;;;7.92;45.48
61324;BME280;47203;48.428;11.974;2023-02-13T08:08:31;98815.94;;;7.94;45.21
61324;BME280;47203;48.428;11.974;2023-02-13T08:10:35;98825.63;;;7.93;45.45
61324;BME280;47203;48.428;11.974;2023-02-13T08:12:52;98823.00;;;7.93;45.32
61324;BME280;47203;48.428;11.974;2023-02-13T08:14:57;98819.56;;;7.93;45.53
61324;BME280;47203;48.428;11.974;2023-02-13T08:17:02;98823.22;;;7.92;45.49
61324;BME280;47203;48.428;11.974;2023-02-13T08:19:09;98823.41;;;7.90;45.32
61324;BME280;47203;48.428;11.974;2023-02-13T08:21:14;98817.53;;;7.88;45.38
61324;BME280;47203;48.428;11.974;2023-02-13T08:23:19;98826.22;;;7.89;45.29
61324;BME280;47203;48.428;11.974;2023-02-13T08:25:23;98818.34;;;7.89;45.42
61324;BME280;47203;48.428;11.974;2023-02-13T08:27:28;98821.78;;;7.89;45.42
61324;BME280;47203;48.428;11.974;2023-02-13T08:29:33;98823.59;;;7.89;45.42
61324;BME280;47203;48.428;11.974;2023-02-13T08:31:37;98821.78;;;7.89;45.50
61324;BME280;47203;48.428;11.974;2023-02-13T08:33:42;98820.16;;;7.88;45.61
61324;BME280;47203;48.428;11.974;2023-02-13T08:35:49;98819.34;;;7.88;45.58
61324;BME280;47203;48.428;11.974;2023-02-13T08:37:53;98818.16;;;7.90;45.41
61324;BME280;47203;48.428;11.974;2023-02-13T08:39:58;98817.78;;;7.93;45.42
61324;BME280;47203;48.428;11.974;2023-02-13T08:42:03;98818.56;;;7.94;45.42
61324;BME280;47203;48.428;11.974;2023-02-13T08:44:08;98820.19;;;7.95;45.61
61324;BME280;47203;48.428;11.974;2023-02-13T08:46:13;98815.34;;;7.92;45.51
61324;BME280;47203;48.428;11.974;2023-02-13T08:48:17;98815.75;;;7.89;45.60
61324;BME280;47203;48.428;11.974;2023-02-13T08:50:22;98822.78;;;7.88;45.66
61324;BME280;47203;48.428;11.974;2023-02-13T08:52:30;98830.22;;;7.84;45.49
61324;BME280;47203;48.428;11.974;2023-02-13T08:54:34;98833.81;;;7.77;45.63
61324;BME280;47203;48.428;11.974;2023-02-13T08:56:39;98833.78;;;7.70;45.92
61324;BME280;47203;48.428;11.974;2023-02-13T08:58:46;98834.59;;;7.71;45.70
61324;BME280;47203;48.428;11.974;2023-02-13T09:00:52;98830.97;;;7.72;45.73
61324;BME280;47203;48.428;11.974;2023-02-13T09:02:59;98834.81;;;7.76;45.53
61324;BME280;47203;48.428;11.974;2023-02-13T09:05:04;98833.81;;;7.77;45.76
61324;BME280;47203;48.428;11.974;2023-02-13T09:07:09;98837.06;;;7.79;45.63
61324;BME280;47203;48.428;11.974;2023-02-13T09:09:16;98835.03;;;7.81;45.73
61324;BME280;47203;48.428;11.974;2023-02-13T09:11:21;98831.03;;;7.85;45.68
61324;BME280;47203;48.428;11.974;2023-02-13T09:13:26;98836.50;;;7.90;45.77
61324;BME280;47203;48.428;11.974;2023-02-13T09:15:31;98830.88;;;7.93;45.43
61324;BME280;47203;48.428;11.974;2023-02-13T09:17:36;98829.69;;;7.96;45.55
61324;BME280;47203;48.428;11.974;2023-02-13T09:19:40;98836.34;;;7.98;45.60
61324;BME280;47203;48.428;11.974;2023-02-13T09:21:46;98828.66;;;7.97;45.61
61324;BME280;47203;48.428;11.974;2023-02-13T09:23:50;98834.94;;;7.96;45.67
61324;BME280;47203;48.428;11.974;2023-02-13T09:25:59;98839.34;;;7.95;45.62
61324;BME280;47203;48.428;11.974;2023-02-13T09:28:04;98836.34;;;7.98;45.64
61324;BME280;47203;48.428;11.974;2023-02-13T09:30:10;98837.56;;;8.02;45.45
61324;BME280;47203;48.428;11.974;2023-02-13T09:32:18;98836.38;;;8.05;45.52
61324;BME280;47203;48.428;11.974;2023-02-13T09:34:23;98835.38;;;8.06;45.60
61324;BME280;47203;48.428;11.974;2023-02-13T09:36:27;98841.03;;;8.10;45.39
61324;BME280;47203;48.428;11.974;2023-02-13T09:38:32;98839.84;;;8.12;45.46
61324;BME280;47203;48.428;11.974;2023-02-13T09:40:38;98845.66;;;8.08;45.46
61324;BME280;47203;48.428;11.974;2023-02-13T09:42:49;98842.00;;;8.02;45.41
61324;BME280;47203;48.428;11.974;2023-02-13T09:44:54;98847.41;;;7.94;45.80
61324;BME280;47203;48.428;11.974;2023-02-13T09:47:02;98848.19;;;7.88;45.75
61324;BME280;47203;48.428;11.974;2023-02-13T09:49:10;98848.78;;;7.83;45.72
61324;BME280;47203;48.428;11.974;2023-02-13T09:51:17;98844.91;;;7.79;46.03
61324;BME280;47203;48.428;11.974;2023-02-13T09:53:23;98852.97;;;7.77;45.77
61324;BME280;47203;48.428;11.974;2023-02-13T09:55:31;98851.34;;;7.76;46.03
61324;BME280;47203;48.428;11.974;2023-02-13T09:57:38;98851.16;;;7.78;46.06
61324;BME280;47203;48.428;11.974;2023-02-13T09:59:52;98847.53;;;7.79;45.89
61324;BME280;47203;48.428;11.974;2023-02-13T10:02:01;98850.56;;;7.82;46.03
61324;BME280;47203;48.428;11.974;2023-02-13T10:04:26;98846.97;;;7.83;45.93
61324;BME280;47203;48.428;11.974;2023-02-13T10:06:34;98847.94;;;7.82;46.04
61324;BME280;47203;48.428;11.974;2023-02-13T10:08:56;98851.22;;;7.84;46.08
61324;BME280;47203;48.428;11.974;2023-02-13T10:11:07;98843.94;;;7.86;46.09
61324;BME280;47203;48.428;11.974;2023-02-13T10:13:29;98851.00;;;7.86;46.15
61324;BME280;47203;48.428;11.974;2023-02-13T10:15:40;98848.78;;;7.90;46.18
61324;BME280;47203;48.428;11.974;2023-02-13T10:17:49;98846.81;;;7.92;45.78
61324;BME280;47203;48.428;11.974;2023-02-13T10:19:58;98840.13;;;7.89;45.89
61324;BME280;47203;48.428;11.974;2023-02-13T10:22:06;98841.13;;;7.88;46.08
61324;BME280;47203;48.428;11.974;2023-02-13T10:24:24;98833.06;;;7.90;46.22
61324;BME280;47203;48.428;11.974;2023-02-13T10:26:31;98839.94;;;7.91;46.29
61324;BME280;47203;48.428;11.974;2023-02-13T10:28:47;98836.50;;;7.90;45.96
61324;BME280;47203;48.428;11.974;2023-02-13T10:31:17;98831.88;;;7.92;45.93
61324;BME280;47203;48.428;11.974;2023-02-13T10:33:24;98830.47;;;7.96;46.15
61324;BME280;47203;48.428;11.974;2023-02-13T10:35:31;98827.28;;;8.01;46.03
61324;BME280;47203;48.428;11.974;2023-02-13T10:37:36;98830.72;;;8.08;45.93
61324;BME280;47203;48.428;11.974;2023-02-13T10:39:43;98836.81;;;8.15;45.92
61324;BME280;47203;48.428;11.974;2023-02-13T10:41:49;98825.72;;;8.20;46.06
61324;BME280;47203;48.428;11.974;2023-02-13T10:43:58;98820.53;;;8.27;45.78
61324;BME280;47203;48.428;11.974;2023-02-13T10:46:10;98823.78;;;8.35;45.97
61324;BME280;47203;48.428;11.974;2023-02-13T10:48:27;98820.34;;;8.42;45.92
61324;BME280;47203;48.428;11.974;2023-02-13T10:50:33;98813.06;;;8.44;45.67
61324;BME280;47203;48.428;11.974;2023-02-13T10:52:43;98817.94;;;8.40;45.90
61324;BME280;47203;48.428;11.974;2023-02-13T10:55:05;98817.53;;;8.43;45.76
61324;BME280;47203;48.428;11.974;2023-02-13T10:57:15;98809.28;;;8.46;45.87
61324;BME280;47203;48.428;11.974;2023-02-13T10:59:33;98813.53;;;8.47;45.68
61324;BME280;47203;48.428;11.974;2023-02-13T11:01:43;98812.28;;;8.43;45.81
61324;BME280;47203;48.428;11.974;2023-02-13T11:04:00;98808.22;;;8.41;46.01
61324;BME280;47203;48.428;11.974;2023-02-13T11:06:08;98809.06;;;8.41;45.82
61324;BME280;47203;48.428;11.974;2023-02-13T11:08:17;98807.66;;;8.45;45.97
61324;BME280;47203;48.428;11.974;2023-02-13T11:10:24;98806.06;;;8.51;46.07
61324;BME280;47203;48.428;11.974;2023-02-13T11:12:30;98801.63;;;8.58;45.76
61324;BME280;47203;48.428;11.974;2023-02-13T11:14:35;98799.63;;;8.67;45.87
61324;BME280;47203;48.428;11.974;2023-02-13T11:16:49;98804.28;;;8.71;45.54
61324;BME280;47203;48.428;11.974;2023-02-13T11:18:55;98792.16;;;8.77;45.70
61324;BME280;47203;48.428;11.974;2023-02-13T11:21:04;98797.22;;;8.85;45.55
61324;BME280;47203;48.428;11.974;2023-02-13T11:23:17;98786.69;;;8.92;45.69